Time;durP1;ratioP1;P1;durP2;ratioP2;P2;SDS_P1;SDS_P2;PMS_P1;PMS_P2;Temp;Humidity;BMP_temperature;BMP_pressure;BME280_temperature;BME280_humidity;BME280_pressure;Samples;Min_cycle;Max_cycle;Signal;HPM_P1;HPM_P2
2022/01/07 00:01:03;;;;;;;24.30;8.23;;;0.30;99.90;;;;;;4935313;28;20098;-71
2022/01/07 00:03:30;;;;;;;22.20;8.48;;;0.30;99.90;;;;;;4934495;28;20113;-72
2022/01/07 00:06:01;;;;;;;26.75;8.98;;;0.40;99.90;;;;;;4948805;28;20070;-69
2022/01/07 00:08:28;;;;;;;31.92;10.45;;;0.40;99.90;;;;;;4934554;29;20139;-71
2022/01/07 00:10:56;;;;;;;26.35;8.98;;;0.40;99.90;;;;;;4948491;28;20043;-70
2022/01/07 00:13:23;;;;;;;24.58;10.40;;;0.40;99.90;;;;;;4930248;28;20039;-71
2022/01/07 00:15:53;;;;;;;21.35;8.63;;;0.40;99.90;;;;;;4933898;28;20043;-70
2022/01/07 00:18:23;;;;;;;21.00;9.02;;;0.40;99.90;;;;;;4933441;28;20086;-68
2022/01/07 00:20:52;;;;;;;31.55;11.00;;;0.40;99.90;;;;;;5000746;23;20483;-77
2022/01/07 00:23:20;;;;;;;23.17;10.05;;;0.40;99.90;;;;;;4996867;28;20581;-77
2022/01/07 00:25:47;;;;;;;23.25;8.23;;;0.40;99.90;;;;;;4997575;28;20117;-77
2022/01/07 00:28:14;;;;;;;24.48;8.75;;;0.40;99.90;;;;;;4981349;28;20108;-76
2022/01/07 00:30:41;;;;;;;20.67;9.15;;;0.30;99.90;;;;;;4977872;28;20134;-77
2022/01/07 00:33:08;;;;;;;34.83;11.80;;;0.30;99.90;;;;;;4949757;28;20153;-77
2022/01/07 00:35:35;;;;;;;29.10;11.13;;;0.30;99.90;;;;;;4964245;28;20046;-77
2022/01/07 00:38:04;;;;;;;30.05;10.68;;;0.30;99.90;;;;;;4965694;28;20578;-77
2022/01/07 00:40:30;;;;;;;39.13;11.38;;;0.30;99.90;;;;;;4986092;28;20721;-78
2022/01/07 00:42:57;;;;;;;33.47;11.02;;;0.30;99.90;;;;;;4961275;28;20096;-78
2022/01/07 00:45:25;;;;;;;31.42;11.07;;;0.30;99.90;;;;;;4981744;28;20097;-78
2022/01/07 00:47:53;;;;;;;43.15;12.13;;;0.30;99.90;;;;;;4965206;28;20128;-77
2022/01/07 00:50:21;;;;;;;46.13;13.32;;;0.30;99.90;;;;;;4973159;28;20058;-78
2022/01/07 00:52:48;;;;;;;35.30;13.32;;;0.30;99.90;;;;;;4980686;28;20089;-78
2022/01/07 00:55:16;;;;;;;28.67;12.35;;;0.30;99.90;;;;;;4982416;28;20100;-77
2022/01/07 00:57:43;;;;;;;35.35;13.07;;;0.30;99.90;;;;;;4999520;28;20065;-77
2022/01/07 01:00:13;;;;;;;31.25;11.20;;;0.30;99.90;;;;;;4984722;28;20572;-78
2022/01/07 01:02:41;;;;;;;33.50;11.52;;;0.30;99.90;;;;;;4954048;28;20089;-78
2022/01/07 01:05:10;;;;;;;34.40;13.80;;;0.30;99.90;;;;;;4982354;28;20051;-77
2022/01/07 01:07:38;;;;;;;37.17;12.95;;;0.30;99.90;;;;;;4985115;28;20042;-76
2022/01/07 01:10:07;;;;;;;37.78;11.95;;;0.30;99.90;;;;;;4968653;28;20120;-78
2022/01/07 01:12:35;;;;;;;28.45;12.43;;;0.30;99.90;;;;;;4968709;28;20331;-77
2022/01/07 01:15:04;;;;;;;33.63;13.73;;;0.30;99.90;;;;;;4967240;28;20145;-77
2022/01/07 01:17:31;;;;;;;46.13;14.20;;;0.30;99.90;;;;;;4970356;28;20157;-78
2022/01/07 01:19:58;;;;;;;45.25;13.65;;;0.30;99.90;;;;;;4982275;28;20233;-77
2022/01/07 01:22:25;;;;;;;37.08;13.95;;;0.30;99.90;;;;;;4980103;28;20573;-78
2022/01/07 01:24:51;;;;;;;33.10;14.38;;;0.30;99.90;;;;;;4968000;28;20042;-78
2022/01/07 01:27:18;;;;;;;33.97;13.35;;;0.40;99.90;;;;;;4985346;28;20152;-77
2022/01/07 01:29:45;;;;;;;41.25;13.00;;;0.40;99.90;;;;;;4967096;28;20083;-78
2022/01/07 01:32:12;;;;;;;26.42;11.23;;;0.30;99.90;;;;;;4965981;28;20441;-77
2022/01/07 01:34:39;;;;;;;36.80;12.45;;;0.30;99.90;;;;;;4948838;28;20042;-78
2022/01/07 01:37:06;;;;;;;29.55;12.38;;;0.40;99.90;;;;;;4947877;28;20096;-78
2022/01/07 01:39:33;;;;;;;33.83;14.10;;;0.40;99.90;;;;;;4951545;28;20533;-77
2022/01/07 01:42:00;;;;;;;44.00;13.48;;;0.40;99.90;;;;;;4967625;28;20042;-77
2022/01/07 01:44:27;;;;;;;27.98;12.52;;;0.30;99.90;;;;;;4966542;28;20061;-77
2022/01/07 01:46:54;;;;;;;28.65;12.32;;;0.40;99.90;;;;;;4951713;28;20042;-78
2022/01/07 01:49:21;;;;;;;27.52;10.07;;;0.40;99.90;;;;;;4984062;28;20112;-76
2022/01/07 01:51:48;;;;;;;38.80;12.40;;;0.40;99.90;;;;;;4983699;28;20543;-77
2022/01/07 01:54:16;;;;;;;36.85;13.90;;;0.40;99.90;;;;;;4973073;28;20058;-78
2022/01/07 01:56:43;;;;;;;31.67;13.40;;;0.40;99.90;;;;;;4950872;28;20078;-78
2022/01/07 01:59:10;;;;;;;42.25;12.73;;;0.40;99.90;;;;;;4986387;28;20046;-78
2022/01/07 02:01:40;;;;;;;36.47;12.05;;;0.40;99.90;;;;;;4966794;28;20046;-78
2022/01/07 02:04:07;;;;;;;32.35;12.32;;;0.40;99.90;;;;;;4959261;28;20245;-79
2022/01/07 02:06:36;;;;;;;33.33;13.18;;;0.40;99.90;;;;;;4978583;28;20046;-77
2022/01/07 02:09:05;;;;;;;37.33;12.30;;;0.50;99.90;;;;;;4980720;28;20132;-77
2022/01/07 02:11:33;;;;;;;33.55;11.32;;;0.50;99.90;;;;;;4986850;28;20129;-77
2022/01/07 02:14:02;;;;;;;29.08;10.82;;;0.50;99.90;;;;;;4994522;28;20050;-78
2022/01/07 02:16:29;;;;;;;29.80;11.00;;;0.50;99.90;;;;;;4981124;28;20045;-76
2022/01/07 02:18:56;;;;;;;42.35;10.43;;;0.50;99.90;;;;;;4986136;28;20074;-77
2022/01/07 02:21:24;;;;;;;23.98;9.52;;;0.50;99.90;;;;;;4984610;28;20047;-77
2022/01/07 02:23:51;;;;;;;27.70;10.85;;;0.50;99.90;;;;;;4984751;28;20557;-78
2022/01/07 02:26:19;;;;;;;31.85;11.10;;;0.50;99.90;;;;;;4997923;28;20129;-77
2022/01/07 02:28:49;;;;;;;27.85;11.60;;;0.50;99.90;;;;;;4967232;28;20042;-78
2022/01/07 02:31:17;;;;;;;25.30;10.45;;;0.60;99.90;;;;;;4965908;28;20052;-78
2022/01/07 02:33:44;;;;;;;36.65;9.52;;;0.50;99.90;;;;;;4983028;28;20076;-77
2022/01/07 02:36:12;;;;;;;29.75;11.05;;;0.50;99.90;;;;;;4958604;28;20050;-79
2022/01/07 02:38:40;;;;;;;35.63;11.05;;;0.60;99.90;;;;;;4966526;28;20122;-77
2022/01/07 02:41:06;;;;;;;21.38;9.57;;;0.60;99.90;;;;;;4965848;28;20304;-75
2022/01/07 02:43:33;;;;;;;29.60;11.13;;;0.60;99.90;;;;;;4965894;28;20081;-76
2022/01/07 02:46:00;;;;;;;29.05;11.13;;;0.60;99.90;;;;;;4959365;28;20049;-77
2022/01/07 02:48:27;;;;;;;26.52;10.88;;;0.60;99.90;;;;;;4965667;28;20054;-75
2022/01/07 02:50:54;;;;;;;31.25;11.20;;;0.60;99.90;;;;;;4976921;28;20542;-77
2022/01/07 02:53:20;;;;;;;36.40;13.25;;;0.60;99.90;;;;;;4950113;28;20641;-76
2022/01/07 02:55:47;;;;;;;36.78;11.57;;;0.60;99.90;;;;;;4975991;28;20063;-76
2022/01/07 02:58:14;;;;;;;32.38;11.98;;;0.70;99.90;;;;;;4946847;28;20062;-76
2022/01/07 03:00:41;;;;;;;33.28;12.07;;;0.70;99.90;;;;;;4965991;28;20259;-77
2022/01/07 03:03:08;;;;;;;27.10;10.55;;;0.60;99.90;;;;;;4957904;28;20141;-75
2022/01/07 03:05:35;;;;;;;32.47;11.25;;;0.70;99.90;;;;;;4966146;28;20047;-75
2022/01/07 03:08:02;;;;;;;25.83;10.13;;;0.70;99.90;;;;;;4978653;28;20280;-76
2022/01/07 03:10:30;;;;;;;24.58;12.18;;;0.70;99.90;;;;;;4984356;28;20711;-77
2022/01/07 03:12:59;;;;;;;30.92;11.48;;;0.70;99.90;;;;;;4944912;28;20459;-76
2022/01/07 03:15:26;;;;;;;24.35;10.43;;;0.60;99.90;;;;;;4963790;28;20046;-78
2022/01/07 03:17:53;;;;;;;34.97;11.52;;;0.60;99.90;;;;;;4982606;28;20069;-77
2022/01/07 03:20:20;;;;;;;28.10;10.73;;;0.70;99.90;;;;;;4973145;28;20071;-76
2022/01/07 03:22:49;;;;;;;27.45;11.35;;;0.70;99.90;;;;;;4975261;28;20495;-77
2022/01/07 03:25:17;;;;;;;34.05;10.90;;;0.70;99.90;;;;;;4985159;28;20399;-76
2022/01/07 03:27:45;;;;;;;30.00;11.10;;;0.70;99.90;;;;;;4965437;28;20042;-76
2022/01/07 03:30:15;;;;;;;32.90;11.45;;;0.70;99.90;;;;;;4969758;28;20112;-76
2022/01/07 03:32:42;;;;;;;29.00;12.27;;;0.70;99.90;;;;;;4987039;28;20411;-75
2022/01/07 03:35:11;;;;;;;25.42;9.98;;;0.70;99.90;;;;;;5002023;28;20108;-77
2022/01/07 03:37:40;;;;;;;35.33;13.52;;;0.70;99.90;;;;;;4989137;28;20364;-77
2022/01/07 03:40:09;;;;;;;23.42;9.43;;;0.70;99.90;;;;;;4966563;28;20134;-75
2022/01/07 03:42:36;;;;;;;30.08;11.48;;;0.70;99.90;;;;;;4983099;28;20054;-75
2022/01/07 03:45:05;;;;;;;29.13;12.05;;;0.60;99.90;;;;;;4988803;28;20045;-76
2022/01/07 03:47:31;;;;;;;27.95;12.48;;;0.60;99.90;;;;;;4964609;28;20051;-76
2022/01/07 03:49:58;;;;;;;37.83;13.18;;;0.60;99.90;;;;;;4969559;28;20281;-76
2022/01/07 03:52:25;;;;;;;33.42;11.60;;;0.60;99.90;;;;;;4983082;28;20108;-75
2022/01/07 03:54:52;;;;;;;26.30;9.70;;;0.70;99.90;;;;;;4966173;28;20050;-76
2022/01/07 03:57:19;;;;;;;37.70;12.73;;;0.60;99.90;;;;;;4994821;28;20438;-76
2022/01/07 03:59:47;;;;;;;28.27;11.65;;;0.70;99.90;;;;;;4966323;28;20042;-77
2022/01/07 04:02:14;;;;;;;32.30;11.43;;;0.70;99.90;;;;;;4982382;28;20042;-78
2022/01/07 04:04:41;;;;;;;29.85;10.65;;;0.70;99.90;;;;;;4965202;28;20060;-76
2022/01/07 04:07:07;;;;;;;35.85;11.85;;;0.60;99.90;;;;;;4971008;28;20141;-77
2022/01/07 04:09:34;;;;;;;29.33;10.73;;;0.60;99.90;;;;;;4952369;28;20046;-77
2022/01/07 04:12:03;;;;;;;33.20;10.38;;;0.60;99.90;;;;;;4957256;28;20085;-77
2022/01/07 04:14:30;;;;;;;24.90;11.65;;;0.60;99.90;;;;;;4982718;28;20046;-77
2022/01/07 04:16:59;;;;;;;30.10;10.93;;;0.60;99.90;;;;;;4950790;28;20043;-77
2022/01/07 04:19:26;;;;;;;32.53;10.82;;;0.60;99.90;;;;;;4965179;28;20116;-77
2022/01/07 04:21:53;;;;;;;29.98;11.02;;;0.60;99.90;;;;;;4998495;28;20038;-77
2022/01/07 04:24:19;;;;;;;28.20;9.68;;;0.60;99.90;;;;;;4969262;28;20388;-77
2022/01/07 04:26:46;;;;;;;25.50;11.30;;;0.60;99.90;;;;;;4985047;28;20056;-75
2022/01/07 04:29:13;;;;;;;28.27;10.40;;;0.70;99.90;;;;;;4975704;28;20507;-76
2022/01/07 04:31:40;;;;;;;30.98;11.40;;;0.70;99.90;;;;;;4988063;28;20080;-75
2022/01/07 04:34:07;;;;;;;22.40;10.73;;;0.70;99.90;;;;;;4969085;28;20093;-76
2022/01/07 04:36:34;;;;;;;29.58;11.50;;;0.70;99.90;;;;;;4969195;28;20061;-78
2022/01/07 04:39:01;;;;;;;33.88;11.25;;;0.70;99.90;;;;;;4985447;28;20093;-76
2022/01/07 04:41:28;;;;;;;25.00;9.35;;;0.70;99.90;;;;;;4969415;28;20538;-77
2022/01/07 04:43:54;;;;;;;28.35;10.82;;;0.70;99.90;;;;;;4969824;28;20125;-77
2022/01/07 04:46:21;;;;;;;29.58;11.00;;;0.80;99.90;;;;;;4966656;28;20056;-76
2022/01/07 04:48:48;;;;;;;28.10;11.23;;;0.80;99.90;;;;;;4965333;28;20461;-77
2022/01/07 04:51:15;;;;;;;23.77;10.55;;;0.80;99.90;;;;;;4973442;28;20593;-76
2022/01/07 04:53:42;;;;;;;23.23;11.57;;;0.80;99.90;;;;;;4968350;28;20494;-77
2022/01/07 04:56:08;;;;;;;32.35;11.93;;;0.80;99.90;;;;;;4983885;28;20054;-76
2022/01/07 04:58:35;;;;;;;28.55;11.88;;;0.80;99.90;;;;;;4984395;28;20257;-76
2022/01/07 05:01:02;;;;;;;34.13;12.25;;;0.80;99.90;;;;;;4955474;28;20047;-77
2022/01/07 05:03:29;;;;;;;26.77;11.27;;;0.80;99.90;;;;;;4952134;28;20058;-76
2022/01/07 05:06:11;;;;;;;27.08;11.98;;;0.90;99.90;;;;;;4984318;28;20129;-75
2022/01/07 05:08:37;;;;;;;36.03;12.07;;;0.90;99.90;;;;;;4967574;28;20461;-75
2022/01/07 05:11:04;;;;;;;25.67;12.18;;;0.80;99.90;;;;;;4980694;28;20511;-77
2022/01/07 05:13:31;;;;;;;27.42;11.43;;;0.90;99.90;;;;;;4968085;28;20097;-76
2022/01/07 05:15:58;;;;;;;29.75;10.55;;;0.80;99.90;;;;;;4983649;28;20328;-75
2022/01/07 05:18:25;;;;;;;29.35;11.77;;;0.90;99.90;;;;;;4968414;28;20303;-78
2022/01/07 05:20:51;;;;;;;28.77;11.43;;;0.90;99.90;;;;;;4990606;28;20293;-78
2022/01/07 05:23:19;;;;;;;31.52;11.95;;;0.90;99.90;;;;;;4984021;28;20051;-75
2022/01/07 05:25:46;;;;;;;30.50;12.88;;;0.90;99.90;;;;;;4967866;28;20113;-75
2022/01/07 05:28:13;;;;;;;30.10;10.07;;;0.90;99.90;;;;;;4963531;28;20273;-76
2022/01/07 05:30:39;;;;;;;27.10;10.88;;;0.90;99.90;;;;;;4979981;28;20109;-77
2022/01/07 05:33:06;;;;;;;31.60;11.07;;;0.90;99.90;;;;;;4966703;28;20097;-75
2022/01/07 05:35:33;;;;;;;31.02;11.23;;;1.00;99.90;;;;;;4950884;28;20075;-75
2022/01/07 05:38:00;;;;;;;25.38;10.35;;;0.90;99.90;;;;;;4983860;28;20054;-76
2022/01/07 05:40:27;;;;;;;20.60;9.60;;;0.90;99.90;;;;;;4964996;28;20050;-75
2022/01/07 05:42:54;;;;;;;20.67;9.75;;;0.90;99.90;;;;;;4974444;28;20482;-76
2022/01/07 05:45:20;;;;;;;33.55;12.52;;;0.90;99.90;;;;;;4952242;28;20121;-76
2022/01/07 05:47:47;;;;;;;25.08;10.88;;;0.90;99.90;;;;;;4968050;28;20046;-77
2022/01/07 05:50:14;;;;;;;30.67;12.32;;;0.90;99.90;;;;;;4968140;28;20503;-77
2022/01/07 05:52:41;;;;;;;29.20;12.60;;;0.90;99.90;;;;;;4967486;28;20038;-76
2022/01/07 05:55:08;;;;;;;24.80;11.13;;;0.90;99.90;;;;;;4966696;28;20043;-77
2022/01/07 05:57:35;;;;;;;27.38;11.10;;;0.90;99.90;;;;;;4967971;28;20419;-78
2022/01/07 06:00:06;;;;;;;25.85;10.05;;;0.90;99.90;;;;;;4979438;28;20373;-77
2022/01/07 06:02:38;;;;;;;33.40;10.63;;;1.00;99.90;;;;;;4998552;28;20066;-75
2022/01/07 06:05:06;;;;;;;28.13;10.43;;;0.90;99.90;;;;;;4946623;28;20054;-77
2022/01/07 06:07:33;;;;;;;26.13;11.27;;;0.90;99.90;;;;;;4967351;28;20141;-76
2022/01/07 06:10:00;;;;;;;30.88;12.05;;;0.90;99.90;;;;;;4984105;28;20124;-76
2022/01/07 06:12:26;;;;;;;26.75;12.45;;;0.90;99.90;;;;;;4956122;28;20051;-78
2022/01/07 06:14:53;;;;;;;32.20;12.68;;;0.90;99.90;;;;;;4981844;28;20042;-75
2022/01/07 06:17:20;;;;;;;29.90;12.98;;;0.90;99.90;;;;;;4966846;28;20097;-76
2022/01/07 06:19:47;;;;;;;35.80;13.73;;;0.80;99.90;;;;;;5022628;23;20353;-71
2022/01/07 06:22:14;;;;;;;26.00;11.57;;;0.80;99.90;;;;;;4988678;28;20150;-71
2022/01/07 06:24:41;;;;;;;37.80;13.50;;;0.80;99.90;;;;;;4972814;28;20136;-70
2022/01/07 06:27:09;;;;;;;26.30;12.48;;;0.80;99.90;;;;;;4972150;28;20105;-70
2022/01/07 06:29:35;;;;;;;50.85;19.20;;;0.80;99.90;;;;;;4965724;28;20047;-70
2022/01/07 06:32:03;;;;;;;42.85;17.55;;;0.80;99.90;;;;;;4956515;28;20070;-71
2022/01/07 06:34:31;;;;;;;37.85;16.05;;;0.80;99.90;;;;;;4970495;28;20049;-70
2022/01/07 06:36:59;;;;;;;35.42;14.20;;;0.80;99.90;;;;;;4985973;28;20295;-71
2022/01/07 06:39:28;;;;;;;29.98;12.35;;;0.80;99.90;;;;;;4968195;28;20457;-70
2022/01/07 06:41:57;;;;;;;30.80;14.15;;;0.80;99.90;;;;;;4954133;28;20069;-70
2022/01/07 06:44:24;;;;;;;35.85;13.55;;;0.80;99.90;;;;;;4969573;28;20061;-69
2022/01/07 06:46:51;;;;;;;43.72;16.50;;;0.80;99.90;;;;;;4972619;28;20061;-71
2022/01/07 06:49:17;;;;;;;38.85;16.73;;;0.80;99.90;;;;;;4972982;28;20108;-70
2022/01/07 06:51:45;;;;;;;35.08;16.75;;;0.90;99.90;;;;;;4974312;28;20120;-71
2022/01/07 06:54:11;;;;;;;40.78;17.38;;;0.90;99.90;;;;;;4971563;28;20109;-70
2022/01/07 06:56:43;;;;;;;33.72;17.15;;;0.90;99.90;;;;;;4972642;28;20129;-69
2022/01/07 06:59:14;;;;;;;43.47;15.90;;;0.90;99.90;;;;;;4971940;28;20054;-71
2022/01/07 07:01:45;;;;;;;35.03;14.65;;;1.00;99.90;;;;;;4953285;28;20039;-69
2022/01/07 07:04:12;;;;;;;36.13;13.27;;;0.90;99.90;;;;;;4964397;28;20051;-72
2022/01/07 07:06:39;;;;;;;36.95;15.05;;;0.90;99.90;;;;;;4972770;28;20533;-72
2022/01/07 07:09:06;;;;;;;33.65;15.80;;;0.90;99.90;;;;;;4947410;28;20456;-70
2022/01/07 07:11:33;;;;;;;32.35;15.27;;;1.00;99.90;;;;;;4986299;28;20073;-71
2022/01/07 07:14:00;;;;;;;34.95;15.75;;;1.00;99.90;;;;;;4970892;28;20536;-70
2022/01/07 07:16:27;;;;;;;37.50;14.75;;;1.00;99.90;;;;;;4970741;28;20575;-70
2022/01/07 07:18:54;;;;;;;33.33;14.57;;;1.00;99.90;;;;;;4987390;28;20328;-70
2022/01/07 07:21:21;;;;;;;40.00;15.95;;;1.00;99.90;;;;;;4984745;28;20349;-74
2022/01/07 07:23:48;;;;;;;26.38;13.68;;;1.00;99.90;;;;;;4969448;28;20050;-75
2022/01/07 07:26:14;;;;;;;28.20;14.50;;;1.00;99.90;;;;;;4971857;28;20051;-76
2022/01/07 07:28:41;;;;;;;25.85;12.45;;;1.00;99.90;;;;;;4964383;28;20050;-75
2022/01/07 07:31:14;;;;;;;30.08;14.73;;;1.00;99.90;;;;;;4970383;28;20422;-74
2022/01/07 07:36:29;;;;;;;31.83;13.95;;;1.00;99.90;;;;;;4951541;28;20496;-75
2022/01/07 07:39:08;;;;;;;31.35;13.18;;;1.00;99.90;;;;;;4968582;28;20058;-77
2022/01/07 07:41:37;;;;;;;28.63;13.88;;;1.00;99.90;;;;;;4952004;28;20429;-75
2022/01/07 07:44:04;;;;;;;34.47;14.98;;;1.00;99.90;;;;;;4964580;28;20046;-73
2022/01/07 07:46:33;;;;;;;38.75;14.13;;;1.00;99.90;;;;;;4955524;28;20062;-74
2022/01/07 07:49:02;;;;;;;28.20;14.15;;;1.00;99.90;;;;;;4949091;28;20269;-75
2022/01/07 07:51:29;;;;;;;24.05;12.02;;;1.00;99.90;;;;;;4950437;28;20062;-75
2022/01/07 07:53:57;;;;;;;21.58;11.25;;;1.00;99.90;;;;;;4950175;28;20097;-75
2022/01/07 07:56:26;;;;;;;28.75;14.18;;;1.00;99.90;;;;;;4978212;28;20046;-75
2022/01/07 07:58:54;;;;;;;33.97;13.68;;;1.00;99.90;;;;;;4957099;28;20054;-75
2022/01/07 08:01:21;;;;;;;36.55;13.63;;;1.10;99.90;;;;;;4985315;28;20049;-74
2022/01/07 08:03:48;;;;;;;23.42;12.35;;;1.10;99.90;;;;;;4970527;28;21136;-75
2022/01/07 08:06:15;;;;;;;22.20;10.52;;;1.10;99.90;;;;;;4971070;28;20038;-74
2022/01/07 08:08:42;;;;;;;24.85;10.70;;;1.10;99.90;;;;;;4973030;28;20118;-75
2022/01/07 08:11:11;;;;;;;21.40;11.18;;;1.10;99.90;;;;;;4973734;28;20053;-72
2022/01/07 08:16:27;;;;;;;;;;;1.10;99.90;;;;;;4968838;28;20054;-73
2022/01/07 08:18:56;;;;;;;22.55;11.50;;;1.10;99.90;;;;;;4972997;28;20442;-76
2022/01/07 08:21:26;;;;;;;28.25;11.55;;;1.10;99.90;;;;;;4970959;28;20097;-75
2022/01/07 08:23:55;;;;;;;29.25;12.65;;;1.10;99.90;;;;;;4971568;28;20051;-76
2022/01/07 08:26:23;;;;;;;16.45;8.30;;;1.10;99.90;;;;;;4971190;28;20492;-75
2022/01/07 08:28:55;;;;;;;22.90;10.73;;;1.10;99.90;;;;;;4964622;28;20054;-75
2022/01/07 08:36:46;;;;;;;24.83;11.57;;;1.30;99.90;;;;;;4958081;28;20379;-77
2022/01/07 08:39:12;;;;;;;19.13;9.20;;;1.30;99.90;;;;;;4974017;28;20046;-74
2022/01/07 08:41:39;;;;;;;20.75;9.45;;;1.40;99.90;;;;;;4973086;28;20050;-76
2022/01/07 08:44:07;;;;;;;19.10;11.32;;;1.40;99.90;;;;;;4981946;28;20536;-76
2022/01/07 08:46:34;;;;;;;15.38;8.25;;;1.50;99.90;;;;;;4991838;28;20088;-69
2022/01/07 08:49:03;;;;;;;13.65;7.97;;;1.50;99.90;;;;;;4972316;28;20505;-71
2022/01/07 08:51:30;;;;;;;12.50;6.82;;;1.50;99.90;;;;;;4970159;28;20038;-73
2022/01/07 08:53:58;;;;;;;15.27;7.13;;;1.50;99.90;;;;;;4971904;28;20100;-73
2022/01/07 08:56:25;;;;;;;10.65;6.63;;;1.50;99.90;;;;;;4968833;28;20042;-73
2022/01/07 08:58:56;;;;;;;17.15;7.65;;;1.50;99.90;;;;;;4966174;28;20046;-73
2022/01/07 09:01:28;;;;;;;15.90;10.32;;;1.60;99.90;;;;;;4968998;28;20104;-72
2022/01/07 09:03:56;;;;;;;18.10;7.25;;;1.70;99.90;;;;;;4972703;28;20316;-71
2022/01/07 09:06:22;;;;;;;14.18;8.13;;;1.70;99.90;;;;;;4951553;28;20097;-72
2022/01/07 09:08:49;;;;;;;13.07;8.48;;;1.70;99.90;;;;;;4967225;28;20058;-71
2022/01/07 09:11:16;;;;;;;12.43;8.20;;;1.70;99.90;;;;;;4975490;28;20050;-72
2022/01/07 09:13:45;;;;;;;20.13;13.02;;;1.80;99.90;;;;;;4976117;28;20058;-71
2022/01/07 09:16:12;;;;;;;12.35;7.45;;;1.80;99.90;;;;;;4976996;28;20132;-71
2022/01/07 09:18:39;;;;;;;30.92;24.30;;;1.90;99.90;;;;;;4976383;28;20054;-72
2022/01/07 09:21:10;;;;;;;12.68;7.35;;;1.90;99.90;;;;;;4991773;28;20558;-71
2022/01/07 09:23:40;;;;;;;25.13;14.90;;;2.00;99.90;;;;;;4975512;28;20101;-72
2022/01/07 09:26:11;;;;;;;21.27;16.95;;;2.00;99.90;;;;;;4972202;28;20057;-73
2022/01/07 09:28:38;;;;;;;18.90;11.13;;;2.10;99.90;;;;;;4969843;28;20113;-72
2022/01/07 09:31:05;;;;;;;19.45;9.27;;;2.10;99.90;;;;;;4970643;28;20095;-71
2022/01/07 09:33:32;;;;;;;12.82;7.57;;;2.20;99.90;;;;;;5012127;28;20050;-71
2022/01/07 09:36:19;;;;;;;19.40;15.00;;;2.30;99.90;;;;;;4984497;28;20054;-70
2022/01/07 09:38:46;;;;;;;18.48;14.70;;;2.30;99.90;;;;;;4963053;28;20056;-70
2022/01/07 09:41:13;;;;;;;13.23;8.65;;;2.30;99.90;;;;;;4963919;28;20058;-73
2022/01/07 09:43:43;;;;;;;9.68;6.95;;;2.40;99.90;;;;;;4977094;28;20081;-75
2022/01/07 09:46:15;;;;;;;8.93;7.63;;;2.40;99.90;;;;;;4989596;28;20405;-78
2022/01/07 09:48:42;;;;;;;12.45;5.90;;;2.50;99.90;;;;;;4962031;28;20583;-75
2022/01/07 09:51:09;;;;;;;15.32;13.05;;;2.40;99.90;;;;;;4976375;28;20046;-76
2022/01/07 09:53:36;;;;;;;8.32;7.07;;;2.50;99.90;;;;;;4977389;28;20528;-76
2022/01/07 09:56:06;;;;;;;9.85;5.85;;;2.50;99.90;;;;;;4976138;28;20065;-76
2022/01/07 09:58:34;;;;;;;7.88;6.55;;;2.50;99.90;;;;;;4973615;28;20058;-73
2022/01/07 10:01:03;;;;;;;9.63;8.05;;;2.60;99.90;;;;;;4992125;28;20047;-76
2022/01/07 10:03:38;;;;;;;16.13;11.35;;;2.60;99.90;;;;;;4991235;28;20169;-71
2022/01/07 10:06:23;;;;;;;15.20;9.73;;;2.70;99.90;;;;;;4984140;28;20050;-71
2022/01/07 10:09:07;;;;;;;10.93;8.05;;;2.70;99.90;;;;;;4996701;28;20186;-71
2022/01/07 10:11:34;;;;;;;8.27;7.47;;;2.70;99.90;;;;;;4982483;28;20145;-72
2022/01/07 10:14:17;;;;;;;9.80;8.48;;;2.70;99.90;;;;;;4976090;28;20046;-71
2022/01/07 10:16:57;;;;;;;12.20;9.20;;;2.80;99.90;;;;;;4941133;28;20046;-73
2022/01/07 10:19:38;;;;;;;17.10;10.18;;;2.80;99.90;;;;;;4976180;28;20551;-72
2022/01/07 10:22:12;;;;;;;14.27;9.95;;;2.80;99.90;;;;;;4974663;28;20116;-72
2022/01/07 10:25:00;;;;;;;12.75;9.18;;;2.80;99.90;;;;;;4958315;28;20050;-73
2022/01/07 10:27:34;;;;;;;16.20;9.43;;;2.80;99.90;;;;;;4956788;28;20109;-70
2022/01/07 10:30:13;;;;;;;8.73;7.53;;;2.80;99.90;;;;;;4968922;28;20125;-71
2022/01/07 10:32:41;;;;;;;10.55;9.10;;;2.80;99.90;;;;;;4977261;28;20054;-72
2022/01/07 10:35:19;;;;;;;9.48;8.57;;;2.90;99.90;;;;;;4973425;28;20052;-71
2022/01/07 10:37:48;;;;;;;22.38;14.35;;;2.80;99.90;;;;;;4990356;28;20062;-71
2022/01/07 10:40:41;;;;;;;14.50;12.15;;;2.80;99.90;;;;;;4991752;28;20057;-72
2022/01/07 10:43:21;;;;;;;13.65;11.75;;;2.90;99.90;;;;;;4981201;28;20069;-71
2022/01/07 10:45:54;;;;;;;25.10;21.73;;;2.90;99.90;;;;;;4981970;28;20044;-73
2022/01/07 10:48:25;;;;;;;12.07;7.53;;;2.90;99.90;;;;;;4972455;28;20046;-74
2022/01/07 10:50:52;;;;;;;12.57;10.45;;;2.90;99.90;;;;;;4972557;28;20038;-74
2022/01/07 10:53:29;;;;;;;8.80;7.80;;;3.00;99.90;;;;;;4980616;28;20098;-72
2022/01/07 10:56:04;;;;;;;10.82;9.82;;;3.00;99.90;;;;;;4991519;28;20050;-73
2022/01/07 10:58:51;;;;;;;12.57;10.63;;;3.00;99.90;;;;;;4970309;28;20096;-76
2022/01/07 11:01:20;;;;;;;12.40;9.05;;;3.00;99.90;;;;;;4975107;28;20061;-73
2022/01/07 11:03:49;;;;;;;15.52;12.48;;;3.00;99.90;;;;;;4974981;28;20042;-74
2022/01/07 11:06:16;;;;;;;17.45;12.85;;;2.90;99.90;;;;;;4990748;28;20038;-74
2022/01/07 11:08:43;;;;;;;13.75;10.43;;;2.90;99.90;;;;;;4977446;28;20061;-75
2022/01/07 11:11:11;;;;;;;17.67;12.27;;;2.90;99.90;;;;;;4976862;28;20049;-74
2022/01/07 11:13:38;;;;;;;17.45;11.70;;;2.90;99.90;;;;;;4974347;28;20046;-73
2022/01/07 11:16:06;;;;;;;15.85;11.13;;;3.00;99.90;;;;;;4974170;28;20046;-74
2022/01/07 11:18:36;;;;;;;24.40;16.98;;;3.00;99.90;;;;;;4974447;28;20043;-74
2022/01/07 11:21:07;;;;;;;16.20;13.10;;;3.00;99.90;;;;;;4956143;28;20046;-72
2022/01/07 11:23:37;;;;;;;17.00;12.45;;;3.00;99.90;;;;;;4975261;28;20223;-75
2022/01/07 11:26:06;;;;;;;19.85;11.70;;;3.00;99.90;;;;;;4972167;28;20042;-72
2022/01/07 11:28:34;;;;;;;17.95;9.93;;;3.00;99.90;;;;;;4968073;28;20034;-71
2022/01/07 11:31:13;;;;;;;16.42;11.07;;;2.90;99.90;;;;;;4968990;28;20504;-72
2022/01/07 11:33:41;;;;;;;12.05;10.25;;;2.90;99.90;;;;;;4969626;28;20058;-74
2022/01/07 11:36:11;;;;;;;11.40;9.38;;;2.90;99.90;;;;;;4972401;28;20070;-76
2022/01/07 11:38:39;;;;;;;10.15;8.73;;;2.90;99.90;;;;;;4978445;28;20058;-74
2022/01/07 11:41:11;;;;;;;13.85;8.82;;;2.90;99.90;;;;;;4979868;28;20092;-75
2022/01/07 11:43:42;;;;;;;15.45;11.52;;;2.90;99.90;;;;;;4975760;28;20047;-74
2022/01/07 11:46:30;;;;;;;15.05;11.98;;;2.90;99.90;;;;;;4988445;28;20050;-75
2022/01/07 11:49:00;;;;;;;14.77;11.07;;;2.90;99.90;;;;;;4995021;28;20153;-76
2022/01/07 11:51:39;;;;;;;19.67;13.23;;;2.90;99.90;;;;;;4996165;28;20051;-75
2022/01/07 11:54:09;;;;;;;18.58;14.52;;;3.00;99.90;;;;;;4977183;28;20259;-74
2022/01/07 11:56:37;;;;;;;17.00;12.20;;;2.90;99.90;;;;;;4973694;28;20057;-76
2022/01/07 11:59:15;;;;;;;15.70;13.50;;;2.90;99.90;;;;;;4974736;28;20092;-74
2022/01/07 12:01:42;;;;;;;12.52;10.07;;;2.90;99.90;;;;;;4988428;28;20504;-77
2022/01/07 12:04:27;;;;;;;14.55;9.35;;;2.90;99.90;;;;;;4992020;28;20108;-77
2022/01/07 12:06:59;;;;;;;15.23;10.73;;;3.00;99.90;;;;;;4975468;28;20050;-70
2022/01/07 12:09:34;;;;;;;16.83;12.95;;;3.00;99.90;;;;;;4973878;28;20320;-76
2022/01/07 12:12:10;;;;;;;21.75;14.43;;;3.00;99.90;;;;;;4971904;28;20073;-76
2022/01/07 12:14:39;;;;;;;30.25;21.48;;;3.00;99.90;;;;;;4975021;28;20144;-74
2022/01/07 12:17:11;;;;;;;41.65;30.77;;;3.00;99.90;;;;;;4959185;28;20046;-71
2022/01/07 12:19:42;;;;;;;14.98;11.18;;;3.00;99.90;;;;;;4979537;28;20480;-75
2022/01/07 12:22:16;;;;;;;11.00;8.75;;;3.00;99.90;;;;;;5010018;23;20550;-75
2022/01/07 12:24:48;;;;;;;16.00;11.20;;;3.00;99.90;;;;;;5006855;28;20133;-75
2022/01/07 12:27:20;;;;;;;18.48;12.63;;;3.00;99.90;;;;;;4979182;28;20545;-74
2022/01/07 12:29:53;;;;;;;13.73;8.95;;;3.00;99.90;;;;;;4980271;28;20050;-76
2022/01/07 12:32:27;;;;;;;20.33;15.35;;;3.00;99.90;;;;;;4992466;28;20092;-74
2022/01/07 12:34:54;;;;;;;24.35;18.75;;;3.00;99.90;;;;;;4979939;28;20148;-74
2022/01/07 12:37:23;;;;;;;21.63;13.43;;;3.00;99.90;;;;;;4993851;28;20153;-75
2022/01/07 12:39:56;;;;;;;18.75;13.43;;;3.00;99.90;;;;;;4977443;28;20131;-75
2022/01/07 12:42:28;;;;;;;26.95;15.90;;;3.00;99.90;;;;;;4976625;28;20050;-75
2022/01/07 12:45:00;;;;;;;24.05;14.70;;;3.00;99.90;;;;;;4980356;28;20126;-75
2022/01/07 12:47:29;;;;;;;18.77;13.27;;;3.10;99.90;;;;;;4981117;28;20046;-75
2022/01/07 12:49:58;;;;;;;14.90;11.95;;;3.10;99.90;;;;;;4983237;28;20057;-75
2022/01/07 12:52:37;;;;;;;30.95;22.83;;;3.10;99.90;;;;;;4981343;28;20268;-75
2022/01/07 12:55:13;;;;;;;19.15;14.77;;;3.10;99.90;;;;;;4980368;28;20062;-75
2022/01/07 12:57:48;;;;;;;22.60;13.15;;;3.10;99.90;;;;;;4981819;28;20064;-75
2022/01/07 13:00:25;;;;;;;13.27;8.25;;;3.10;99.90;;;;;;4983480;28;20058;-76